This is the latest recevied weather packets stored in our database for station/object N7TUG-8. If no packets are shown the sender has not sent any weather packets the latest 10 day(s).
| Time | Temp. | Humidity | Pressure | Rain* | Wind** | Luminosity | Snow |
|---|---|---|---|---|---|---|---|
| 1777479446 | 11.67° C | 78% | 1025.2 hPa | 0 mm | 3.58 m/s, 329° | - | - |
| 1777478942 | 11.11° C | 78% | 1025.3 hPa | 0 mm | 3.58 m/s, 324° | - | - |
| 1777478646 | 11.67° C | 78% | 1025.3 hPa | 0 mm | 3.58 m/s, 325° | - | - |
| 1777478097 | 11.67° C | 77% | 1025.4 hPa | 0 mm | 2.68 m/s, 299° | - | - |
| 1777477871 | 11.67° C | 77% | 1025.4 hPa | 0 mm | 2.68 m/s, 299° | - | - |
| 1777476992 | 11.11° C | 79% | 1025.4 hPa | 0 mm | 3.13 m/s, 327° | - | - |
| 1777476072 | 11.11° C | 80% | 1025.5 hPa | 0 mm | 1.79 m/s, 305° | - | - |
| 1777475767 | 10.56° C | 80% | 1025.4 hPa | 0 mm | 2.24 m/s, 319° | - | - |
| 1777475732 | 10.56° C | 80% | 1025.4 hPa | 0 mm | 2.24 m/s, 319° | - | - |
| 1777475256 | 10.56° C | 81% | 1025.5 hPa | 0 mm | 2.68 m/s, 322° | - | - |
| 1777474912 | 10.56° C | 80% | 1025.5 hPa | 0 mm | 1.34 m/s, 324° | - | - |
| 1777474461 | 10.56° C | 81% | 1025.5 hPa | 0 mm | 1.79 m/s, 335° | - | - |
| 1777474173 | 10° C | 81% | 1025.4 hPa | 0 mm | 1.79 m/s, 338° | - | - |
| 1777473611 | 11.11° C | 77% | 1025.4 hPa | 0 mm | 1.34 m/s, 318° | - | - |
| 1777473470 | 11.11° C | 77% | 1025.4 hPa | 0 mm | 1.34 m/s, 318° | - | - |
| 1777473437 | 11.11° C | 77% | 1025.4 hPa | 0 mm | 1.34 m/s, 318° | - | - |
| 1777472666 | 12.22° C | 75% | 1025.4 hPa | 0 mm | 0.45 m/s, 110° | - | - |
| 1777471876 | 13.33° C | 75% | 1025.3 hPa | 0 mm | 0.45 m/s, 124° | - | - |
| 1777471822 | 13.33° C | 75% | 1025.3 hPa | 0 mm | 0.45 m/s, 124° | - | - |
| 1777470982 | 11.11° C | 80% | 1025.2 hPa | 0 mm | 0 m/s | - | - |
| 1777470916 | 11.11° C | 80% | 1025.2 hPa | 0 mm | 0 m/s | - | - |
| 1777470157 | 8.89° C | 83% | 1025.2 hPa | 0 mm | 0.89 m/s, 325° | - | - |
| 1777470041 | 8.89° C | 83% | 1025.2 hPa | 0 mm | 0.89 m/s, 325° | - | - |
| 1777469246 | 8.33° C | 85% | 1025 hPa | 0 mm | 0.45 m/s, 4° | - | - |
| 1777468625 | 7.78° C | 86% | 1024.9 hPa | 0 mm | 0.45 m/s, 356° | - | - |
* Rain latest hour (hover to see other rain measurements)
** Current wind speed in m/s (hover to see current wind gust speed)